This is the latest recevied weather packets stored in our database for station/object K0CVS. If no packets are shown the sender has not sent any weather packets the latest 10 day(s).
| Time | Temp. | Humidity | Pressure | Rain* | Wind** | Luminosity | Snow |
|---|---|---|---|---|---|---|---|
| 1777916690 | 26.67° C | 41% | 1003.6 hPa | 0 mm | - | 748 W/m² | - |
| 1777916388 | 26.11° C | 41% | 1003.5 hPa | 0 mm | - | 743 W/m² | - |
| 1777916083 | 26.11° C | 41% | 1003.6 hPa | 0 mm | - | 740 W/m² | - |
| 1777915782 | 25.56° C | 45% | 1003.6 hPa | 0 mm | - | 737 W/m² | - |
| 1777915477 | 25.56° C | 46% | 1003.9 hPa | 0 mm | - | 734 W/m² | - |
| 1777915174 | 26.11° C | 44% | 1003.9 hPa | 0 mm | - | 727 W/m² | - |
| 1777914871 | 25.56° C | 44% | 1003.8 hPa | 0 mm | - | 723 W/m² | - |
| 1777914568 | 25.56° C | 43% | 1004 hPa | 0 mm | - | 719 W/m² | - |
| 1777914264 | 25.56° C | 43% | 1003.8 hPa | 0 mm | - | 711 W/m² | - |
| 1777913961 | 25.56° C | 42% | 1003.7 hPa | 0 mm | - | 707 W/m² | - |
| 1777913658 | 25.56° C | 42% | 1003.8 hPa | 0 mm | - | 701 W/m² | - |
| 1777913354 | 25.56° C | 42% | 1003.8 hPa | 0 mm | - | 694 W/m² | - |
| 1777913051 | 25° C | 44% | 1003.7 hPa | 0 mm | - | 684 W/m² | - |
| 1777912747 | 25° C | 43% | 1004 hPa | 0 mm | - | 675 W/m² | - |
| 1777912443 | 25° C | 43% | 1003.7 hPa | 0 mm | - | 669 W/m² | - |
| 1777912139 | 24.44° C | 45% | 1003.8 hPa | 0 mm | - | 658 W/m² | - |
| 1777911835 | 23.89° C | 45% | 1003.9 hPa | 0 mm | - | 650 W/m² | - |
| 1777911532 | 23.89° C | 44% | 1003.9 hPa | 0 mm | - | 641 W/m² | - |
| 1777911229 | 23.33° C | 45% | 1003.9 hPa | 0 mm | - | 243 W/m² | - |
| 1777910926 | 23.33° C | 45% | 1003.8 hPa | 0 mm | - | 70 W/m² | - |
| 1777910623 | 23.33° C | 45% | 1003.9 hPa | 0 mm | - | 66 W/m² | - |
| 1777910320 | 22.78° C | 45% | 1004 hPa | 0 mm | - | 60 W/m² | - |
| 1777910017 | 22.78° C | 46% | 1003.9 hPa | 0 mm | - | 55 W/m² | - |
| 1777909714 | 22.78° C | 46% | 1004 hPa | 0 mm | - | 67 W/m² | - |
| 1777909411 | 22.78° C | 45% | 1003.9 hPa | 0 mm | - | 66 W/m² | - |
* Rain latest hour (hover to see other rain measurements)
** Current wind speed in m/s (hover to see current wind gust speed)